PGT1548 LTFJ-LROP
Flight info
| Callsign | PGT1548 |
|---|---|
| Flight time | 1h 11m |
| Altitude | 36000 |
| Route | IBLAX1J/06L IBLAX P727 BGS L622 OBUGA |
| Aircraft | A21N/M-SDE2E3FGHIRWXY/LB1 |
Departure
| Time | 2026-04-30 19:37 |
|---|---|
| Airport | Istanbul Sabiha Gökçen International Airport (LTFJ) |
Arrival
| Time | 2026-04-30 20:48 |
|---|---|
| Airport | Bucharest Henri Coandă International Airport (LROP) |
| Time | Latitude | Longitude | Altitude | Speed | Heading |
|---|---|---|---|---|---|
| 2026-04-30 18:52 | 40.90641 | 29.31732 | 322 ft | 0 kts | 334° |
| 2026-04-30 19:24 | 40.90612 | 29.31753 | 324 ft | 4 kts | 327° |
| 2026-04-30 19:24 | 40.90592 | 29.31774 | 322 ft | 4 kts | 307° |
| 2026-04-30 19:24 | 40.90585 | 29.31806 | 324 ft | 0 kts | 244° |
| 2026-04-30 19:27 | 40.90582 | 29.31797 | 326 ft | 3 kts | 244° |
| 2026-04-30 19:28 | 40.90570 | 29.31764 | 324 ft | 5 kts | 244° |
| 2026-04-30 19:28 | 40.90525 | 29.31643 | 326 ft | 9 kts | 244° |
| 2026-04-30 19:29 | 40.90483 | 29.31528 | 326 ft | 7 kts | 244° |
| 2026-04-30 19:29 | 40.90459 | 29.31464 | 326 ft | 9 kts | 244° |
| 2026-04-30 19:30 | 40.90300 | 29.31508 | 326 ft | 7 kts | 169° |
| 2026-04-30 19:30 | 40.90233 | 29.31376 | 326 ft | 11 kts | 244° |
| 2026-04-30 19:31 | 40.90156 | 29.31166 | 326 ft | 14 kts | 244° |
| 2026-04-30 19:31 | 40.90109 | 29.31040 | 326 ft | 16 kts | 244° |
| 2026-04-30 19:31 | 40.90005 | 29.30756 | 325 ft | 19 kts | 244° |
| 2026-04-30 19:32 | 40.89948 | 29.30600 | 325 ft | 19 kts | 244° |
| 2026-04-30 19:32 | 40.89892 | 29.30448 | 326 ft | 16 kts | 244° |
| 2026-04-30 19:32 | 40.89842 | 29.30311 | 326 ft | 17 kts | 244° |
| 2026-04-30 19:32 | 40.89787 | 29.30163 | 325 ft | 19 kts | 244° |
| 2026-04-30 19:33 | 40.89728 | 29.30005 | 326 ft | 20 kts | 245° |
| 2026-04-30 19:33 | 40.89667 | 29.29836 | 326 ft | 21 kts | 244° |
| 2026-04-30 19:33 | 40.89605 | 29.29667 | 324 ft | 15 kts | 244° |
| 2026-04-30 19:33 | 40.89557 | 29.29540 | 325 ft | 16 kts | 244° |
| 2026-04-30 19:34 | 40.89506 | 29.29399 | 326 ft | 18 kts | 244° |
| 2026-04-30 19:34 | 40.89475 | 29.29313 | 326 ft | 11 kts | 244° |
| 2026-04-30 19:34 | 40.89393 | 29.29254 | 326 ft | 6 kts | 159° |
| 2026-04-30 19:35 | 40.89359 | 29.29273 | 325 ft | 6 kts | 156° |
| 2026-04-30 19:35 | 40.89315 | 29.29299 | 326 ft | 8 kts | 148° |
| 2026-04-30 19:35 | 40.89291 | 29.29329 | 328 ft | 5 kts | 118° |
| 2026-04-30 19:35 | 40.89292 | 29.29384 | 326 ft | 7 kts | 73° |
| 2026-04-30 19:36 | 40.89313 | 29.29450 | 325 ft | 9 kts | 64° |
| 2026-04-30 19:36 | 40.89344 | 29.29535 | 325 ft | 15 kts | 64° |
| 2026-04-30 19:36 | 40.89813 | 29.30805 | 325 ft | 134 kts | 63° |
| 2026-04-30 19:37 | 40.90260 | 29.32031 | 541 ft | 154 kts | 63° |
| 2026-04-30 19:37 | 40.90710 | 29.33285 | 1191 ft | 151 kts | 62° |
| 2026-04-30 19:37 | 40.91183 | 29.34558 | 1724 ft | 159 kts | 62° |
| 2026-04-30 19:37 | 40.91696 | 29.35939 | 2149 ft | 177 kts | 63° |
| 2026-04-30 19:38 | 40.92260 | 29.37476 | 2700 ft | 194 kts | 63° |
| 2026-04-30 19:38 | 40.92873 | 29.39143 | 3256 ft | 213 kts | 63° |
| 2026-04-30 19:38 | 40.93562 | 29.41007 | 3723 ft | 236 kts | 63° |
| 2026-04-30 19:38 | 40.94336 | 29.43023 | 4290 ft | 255 kts | 56° |
| 2026-04-30 19:39 | 40.95640 | 29.44661 | 4973 ft | 265 kts | 28° |
| 2026-04-30 19:39 | 40.97412 | 29.45323 | 5699 ft | 269 kts | 358° |
| 2026-04-30 19:39 | 40.99231 | 29.44822 | 6452 ft | 270 kts | 330° |
| 2026-04-30 19:39 | 41.00738 | 29.43370 | 7226 ft | 270 kts | 314° |
| 2026-04-30 19:40 | 41.02098 | 29.41682 | 8050 ft | 274 kts | 312° |
| 2026-04-30 19:40 | 41.03521 | 29.39930 | 8908 ft | 278 kts | 313° |
| 2026-04-30 19:40 | 41.04950 | 29.38221 | 9757 ft | 282 kts | 313° |
| 2026-04-30 19:40 | 41.06444 | 29.36468 | 10390 ft | 295 kts | 313° |
| 2026-04-30 19:41 | 41.08040 | 29.34595 | 10745 ft | 318 kts | 313° |
| 2026-04-30 19:41 | 41.09755 | 29.32598 | 11042 ft | 340 kts | 314° |
| 2026-04-30 19:41 | 41.11586 | 29.30466 | 11322 ft | 361 kts | 314° |
| 2026-04-30 19:41 | 41.13517 | 29.28242 | 11802 ft | 372 kts | 314° |
| 2026-04-30 19:42 | 41.15488 | 29.25986 | 12470 ft | 377 kts | 314° |
| 2026-04-30 19:42 | 41.17477 | 29.23681 | 13163 ft | 381 kts | 314° |
| 2026-04-30 19:42 | 41.19482 | 29.21360 | 13831 ft | 385 kts | 314° |
| 2026-04-30 19:42 | 41.21509 | 29.19008 | 14435 ft | 388 kts | 314° |
| 2026-04-30 19:43 | 41.23549 | 29.16648 | 15045 ft | 390 kts | 314° |
| 2026-04-30 19:43 | 41.25595 | 29.14273 | 15648 ft | 391 kts | 313° |
| 2026-04-30 19:43 | 41.27647 | 29.11883 | 16243 ft | 393 kts | 313° |
| 2026-04-30 19:44 | 41.31782 | 29.07066 | 17421 ft | 397 kts | 313° |
| 2026-04-30 19:44 | 41.33869 | 29.04636 | 18003 ft | 399 kts | 313° |
| 2026-04-30 19:44 | 41.35964 | 29.02207 | 18560 ft | 400 kts | 313° |
| 2026-04-30 19:44 | 41.38067 | 28.99761 | 19009 ft | 403 kts | 313° |
| 2026-04-30 19:45 | 41.40186 | 28.97291 | 19468 ft | 405 kts | 313° |
| 2026-04-30 19:45 | 41.42316 | 28.94805 | 19920 ft | 407 kts | 313° |
| 2026-04-30 19:45 | 41.44454 | 28.92313 | 20365 ft | 409 kts | 313° |
| 2026-04-30 19:45 | 41.46577 | 28.89838 | 20816 ft | 411 kts | 313° |
| 2026-04-30 19:46 | 41.48731 | 28.87314 | 21268 ft | 413 kts | 313° |
| 2026-04-30 19:46 | 41.50902 | 28.84778 | 21710 ft | 415 kts | 313° |
| 2026-04-30 19:46 | 41.53089 | 28.82238 | 22164 ft | 420 kts | 316° |
| 2026-04-30 19:46 | 41.55597 | 28.80156 | 22636 ft | 432 kts | 328° |
| 2026-04-30 19:47 | 41.58459 | 28.78767 | 23106 ft | 441 kts | 338° |
| 2026-04-30 19:47 | 41.60431 | 28.78068 | 23408 ft | 444 kts | 339° |
| 2026-04-30 19:47 | 41.64446 | 28.76659 | 23987 ft | 447 kts | 338° |
| 2026-04-30 19:47 | 41.67435 | 28.75515 | 24380 ft | 447 kts | 336° |
| 2026-04-30 19:48 | 41.70306 | 28.74009 | 24773 ft | 439 kts | 325° |
| 2026-04-30 19:48 | 41.72758 | 28.71678 | 25146 ft | 429 kts | 311° |
| 2026-04-30 19:48 | 41.74729 | 28.68727 | 25537 ft | 423 kts | 303° |
| 2026-04-30 19:48 | 41.76542 | 28.65618 | 25925 ft | 424 kts | 302° |
| 2026-04-30 19:49 | 41.78351 | 28.62486 | 26293 ft | 426 kts | 302° |
| 2026-04-30 19:49 | 41.82002 | 28.56305 | 27223 ft | 423 kts | 303° |
| 2026-04-30 19:49 | 41.83820 | 28.53224 | 27733 ft | 420 kts | 302° |
| 2026-04-30 19:50 | 41.85633 | 28.50153 | 28230 ft | 418 kts | 302° |
| 2026-04-30 19:50 | 41.87440 | 28.47090 | 28687 ft | 417 kts | 302° |
| 2026-04-30 19:50 | 41.89233 | 28.44044 | 29158 ft | 415 kts | 302° |
| 2026-04-30 19:50 | 41.90999 | 28.40999 | 29670 ft | 412 kts | 301° |
| 2026-04-30 19:51 | 41.92749 | 28.37974 | 30201 ft | 409 kts | 301° |
| 2026-04-30 19:51 | 41.94501 | 28.34972 | 30626 ft | 407 kts | 301° |
| 2026-04-30 19:51 | 41.96247 | 28.31992 | 31020 ft | 405 kts | 301° |
| 2026-04-30 19:51 | 41.97975 | 28.29018 | 31395 ft | 402 kts | 300° |
| 2026-04-30 19:52 | 41.99576 | 28.25962 | 31767 ft | 399 kts | 297° |
| 2026-04-30 19:52 | 42.01134 | 28.22888 | 32136 ft | 397 kts | 297° |
| 2026-04-30 19:52 | 42.02663 | 28.19858 | 32472 ft | 396 kts | 297° |
| 2026-04-30 19:52 | 42.04207 | 28.16797 | 32817 ft | 395 kts | 297° |
| 2026-04-30 19:53 | 42.05752 | 28.13749 | 33147 ft | 394 kts | 297° |
| 2026-04-30 19:53 | 42.07289 | 28.10706 | 33470 ft | 393 kts | 297° |
| 2026-04-30 19:53 | 42.08822 | 28.07658 | 33775 ft | 392 kts | 297° |
| 2026-04-30 19:53 | 42.10356 | 28.04626 | 34074 ft | 391 kts | 297° |
| 2026-04-30 19:54 | 42.11882 | 28.01603 | 34364 ft | 389 kts | 297° |
| 2026-04-30 19:54 | 42.13403 | 27.98589 | 34598 ft | 388 kts | 297° |
| 2026-04-30 19:54 | 42.14917 | 27.95583 | 34846 ft | 387 kts | 297° |
| 2026-04-30 19:54 | 42.16424 | 27.92578 | 35090 ft | 386 kts | 297° |
| 2026-04-30 19:55 | 42.17919 | 27.89578 | 35329 ft | 385 kts | 297° |
| 2026-04-30 19:55 | 42.19416 | 27.86586 | 35574 ft | 384 kts | 298° |
| 2026-04-30 19:55 | 42.20928 | 27.83621 | 35826 ft | 384 kts | 300° |
| 2026-04-30 19:55 | 42.22674 | 27.80927 | 36058 ft | 390 kts | 309° |
| 2026-04-30 19:56 | 42.24835 | 27.78636 | 36228 ft | 401 kts | 320° |
| 2026-04-30 19:56 | 42.27284 | 27.76756 | 36236 ft | 409 kts | 324° |
| 2026-04-30 19:56 | 42.32395 | 27.73109 | 36228 ft | 421 kts | 324° |
| 2026-04-30 19:57 | 42.37565 | 27.69361 | 36222 ft | 422 kts | 323° |
| 2026-04-30 19:57 | 42.42720 | 27.65573 | 36225 ft | 421 kts | 323° |
| 2026-04-30 19:58 | 42.47870 | 27.61779 | 36247 ft | 422 kts | 323° |
| 2026-04-30 19:58 | 42.53021 | 27.57982 | 36257 ft | 421 kts | 323° |
| 2026-04-30 19:59 | 42.58167 | 27.54152 | 36243 ft | 421 kts | 322° |
| 2026-04-30 20:00 | 42.65249 | 27.47411 | 36234 ft | 414 kts | 316° |
| 2026-04-30 20:00 | 42.69862 | 27.42861 | 36240 ft | 409 kts | 316° |
| 2026-04-30 20:01 | 42.76867 | 27.35949 | 36229 ft | 416 kts | 317° |
| 2026-04-30 20:01 | 42.81555 | 27.31326 | 36244 ft | 417 kts | 317° |
| 2026-04-30 20:02 | 42.88572 | 27.24382 | 36256 ft | 416 kts | 317° |
| 2026-04-30 20:03 | 42.95528 | 27.17476 | 36256 ft | 415 kts | 317° |
| 2026-04-30 20:03 | 43.00220 | 27.12802 | 36257 ft | 418 kts | 317° |
| 2026-04-30 20:04 | 43.04912 | 27.08125 | 36282 ft | 418 kts | 317° |
| 2026-04-30 20:05 | 43.12001 | 27.01221 | 35900 ft | 416 kts | 319° |
| 2026-04-30 20:05 | 43.14417 | 26.99017 | 35638 ft | 417 kts | 319° |
| 2026-04-30 20:05 | 43.19207 | 26.94638 | 35157 ft | 416 kts | 319° |
| 2026-04-30 20:06 | 43.21618 | 26.92438 | 34935 ft | 415 kts | 319° |
| 2026-04-30 20:06 | 43.24030 | 26.90253 | 34705 ft | 415 kts | 319° |
| 2026-04-30 20:06 | 43.26433 | 26.88073 | 34467 ft | 414 kts | 319° |
| 2026-04-30 20:06 | 43.28839 | 26.85889 | 34258 ft | 414 kts | 318° |
| 2026-04-30 20:07 | 43.31241 | 26.83697 | 34006 ft | 417 kts | 318° |
| 2026-04-30 20:07 | 43.33663 | 26.81487 | 33732 ft | 419 kts | 318° |
| 2026-04-30 20:07 | 43.38533 | 26.77039 | 33200 ft | 421 kts | 318° |
| 2026-04-30 20:08 | 43.40978 | 26.74793 | 32942 ft | 422 kts | 317° |
| 2026-04-30 20:08 | 43.43419 | 26.72545 | 32673 ft | 423 kts | 317° |
| 2026-04-30 20:08 | 43.45833 | 26.70327 | 32292 ft | 421 kts | 317° |
| 2026-04-30 20:08 | 43.48269 | 26.68105 | 31745 ft | 418 kts | 317° |
| 2026-04-30 20:09 | 43.50680 | 26.65902 | 31194 ft | 416 kts | 317° |
| 2026-04-30 20:09 | 43.52308 | 26.64404 | 30817 ft | 415 kts | 317° |
| 2026-04-30 20:09 | 43.57893 | 26.59256 | 29379 ft | 411 kts | 316° |
| 2026-04-30 20:10 | 43.62582 | 26.54929 | 28239 ft | 405 kts | 317° |
| 2026-04-30 20:10 | 43.64909 | 26.52771 | 27705 ft | 401 kts | 316° |
| 2026-04-30 20:10 | 43.67218 | 26.50634 | 27154 ft | 398 kts | 317° |
| 2026-04-30 20:11 | 43.71798 | 26.46393 | 26090 ft | 394 kts | 318° |
| 2026-04-30 20:11 | 43.73299 | 26.45004 | 25736 ft | 392 kts | 318° |
| 2026-04-30 20:11 | 43.75563 | 26.42910 | 25201 ft | 390 kts | 319° |
| 2026-04-30 20:12 | 43.79985 | 26.38808 | 24563 ft | 378 kts | 318° |
| 2026-04-30 20:12 | 43.82146 | 26.36774 | 24156 ft | 374 kts | 317° |
| 2026-04-30 20:12 | 43.84296 | 26.34738 | 23670 ft | 373 kts | 318° |
| 2026-04-30 20:13 | 43.86436 | 26.32720 | 23093 ft | 372 kts | 319° |
| 2026-04-30 20:13 | 43.88581 | 26.30741 | 22564 ft | 370 kts | 319° |
| 2026-04-30 20:13 | 43.90719 | 26.28765 | 22020 ft | 368 kts | 319° |
| 2026-04-30 20:13 | 43.92848 | 26.26788 | 21494 ft | 367 kts | 319° |
| 2026-04-30 20:14 | 43.94962 | 26.24819 | 20998 ft | 364 kts | 320° |
| 2026-04-30 20:14 | 43.97027 | 26.22886 | 20525 ft | 362 kts | 320° |
| 2026-04-30 20:14 | 43.99107 | 26.20934 | 20059 ft | 359 kts | 319° |
| 2026-04-30 20:14 | 44.01147 | 26.18956 | 19605 ft | 356 kts | 319° |
| 2026-04-30 20:15 | 44.03165 | 26.16982 | 19178 ft | 355 kts | 319° |
| 2026-04-30 20:15 | 44.05183 | 26.15012 | 18757 ft | 354 kts | 319° |
| 2026-04-30 20:15 | 44.07195 | 26.13040 | 18289 ft | 354 kts | 320° |
| 2026-04-30 20:15 | 44.09194 | 26.11036 | 17820 ft | 351 kts | 316° |
| 2026-04-30 20:16 | 44.10838 | 26.08602 | 17389 ft | 343 kts | 301° |
| 2026-04-30 20:16 | 44.11848 | 26.05644 | 16961 ft | 338 kts | 288° |
| 2026-04-30 20:16 | 44.12553 | 26.02536 | 16546 ft | 336 kts | 287° |
| 2026-04-30 20:16 | 44.13235 | 25.99427 | 16124 ft | 335 kts | 287° |
| 2026-04-30 20:17 | 44.13925 | 25.96338 | 15730 ft | 332 kts | 288° |
| 2026-04-30 20:17 | 44.14614 | 25.93284 | 15353 ft | 330 kts | 288° |
| 2026-04-30 20:17 | 44.15301 | 25.90250 | 14959 ft | 328 kts | 289° |
| 2026-04-30 20:17 | 44.15992 | 25.87224 | 14556 ft | 327 kts | 289° |
| 2026-04-30 20:18 | 44.16674 | 25.84217 | 14152 ft | 326 kts | 289° |
| 2026-04-30 20:18 | 44.17360 | 25.81213 | 13735 ft | 324 kts | 290° |
| 2026-04-30 20:18 | 44.18040 | 25.78238 | 13347 ft | 322 kts | 290° |
| 2026-04-30 20:18 | 44.18715 | 25.75279 | 12972 ft | 319 kts | 289° |
| 2026-04-30 20:19 | 44.19372 | 25.72375 | 12599 ft | 317 kts | 289° |
| 2026-04-30 20:19 | 44.20039 | 25.69421 | 12202 ft | 315 kts | 289° |
| 2026-04-30 20:19 | 44.20691 | 25.66548 | 11842 ft | 313 kts | 289° |
| 2026-04-30 20:19 | 44.21346 | 25.63668 | 11482 ft | 311 kts | 290° |
| 2026-04-30 20:20 | 44.21993 | 25.60810 | 11146 ft | 305 kts | 290° |
| 2026-04-30 20:20 | 44.22619 | 25.58038 | 10938 ft | 294 kts | 290° |
| 2026-04-30 20:20 | 44.23266 | 25.55393 | 10767 ft | 283 kts | 294° |
| 2026-04-30 20:20 | 44.24266 | 25.53126 | 10596 ft | 268 kts | 316° |
| 2026-04-30 20:21 | 44.25747 | 25.51709 | 10447 ft | 253 kts | 340° |
| 2026-04-30 20:21 | 44.27454 | 25.51158 | 9958 ft | 253 kts | 355° |
| 2026-04-30 20:21 | 44.29225 | 25.50926 | 9451 ft | 256 kts | 356° |
| 2026-04-30 20:21 | 44.30998 | 25.50702 | 9043 ft | 256 kts | 356° |
| 2026-04-30 20:22 | 44.32763 | 25.50462 | 8670 ft | 254 kts | 356° |
| 2026-04-30 20:22 | 44.34510 | 25.50212 | 8298 ft | 252 kts | 356° |
| 2026-04-30 20:22 | 44.36212 | 25.49956 | 8091 ft | 244 kts | 356° |
| 2026-04-30 20:22 | 44.37863 | 25.49703 | 7945 ft | 233 kts | 356° |
| 2026-04-30 20:23 | 44.39455 | 25.49456 | 7702 ft | 227 kts | 356° |
| 2026-04-30 20:23 | 44.41036 | 25.49209 | 7369 ft | 226 kts | 356° |
| 2026-04-30 20:23 | 44.42577 | 25.48969 | 7050 ft | 226 kts | 356° |
| 2026-04-30 20:23 | 44.44137 | 25.48722 | 6905 ft | 226 kts | 356° |
| 2026-04-30 20:24 | 44.45694 | 25.48477 | 6778 ft | 225 kts | 357° |
| 2026-04-30 20:24 | 44.47246 | 25.48231 | 6844 ft | 224 kts | 356° |
| 2026-04-30 20:24 | 44.48796 | 25.48011 | 6824 ft | 223 kts | 1° |
| 2026-04-30 20:24 | 44.50309 | 25.48331 | 6816 ft | 220 kts | 24° |
| 2026-04-30 20:25 | 44.52183 | 25.51476 | 6615 ft | 221 kts | 74° |
| 2026-04-30 20:25 | 44.52360 | 25.53627 | 6463 ft | 223 kts | 83° |
| 2026-04-30 20:26 | 44.52586 | 25.57878 | 6047 ft | 212 kts | 81° |
| 2026-04-30 20:26 | 44.52874 | 25.61915 | 5534 ft | 206 kts | 81° |
| 2026-04-30 20:26 | 44.53026 | 25.63876 | 5302 ft | 204 kts | 81° |
| 2026-04-30 20:27 | 44.53337 | 25.67809 | 4655 ft | 200 kts | 80° |
| 2026-04-30 20:27 | 44.53638 | 25.71603 | 4025 ft | 191 kts | 81° |
| 2026-04-30 20:28 | 44.53932 | 25.75252 | 3346 ft | 188 kts | 79° |
| 2026-04-30 20:28 | 44.54269 | 25.78874 | 2866 ft | 187 kts | 81° |
| 2026-04-30 20:29 | 44.54548 | 25.82513 | 2651 ft | 185 kts | 81° |
| 2026-04-30 20:30 | 44.54906 | 25.87247 | 2452 ft | 146 kts | 81° |
| 2026-04-30 20:30 | 44.55231 | 25.91501 | 2462 ft | 146 kts | 81° |
| 2026-04-30 20:31 | 44.55556 | 25.95782 | 2015 ft | 151 kts | 82° |
| 2026-04-30 20:32 | 44.55868 | 25.99902 | 1394 ft | 133 kts | 82° |
| 2026-04-30 20:32 | 44.56062 | 26.02498 | 1023 ft | 135 kts | 83° |
| 2026-04-30 20:33 | 44.56164 | 26.03806 | 856 ft | 135 kts | 83° |
| 2026-04-30 20:33 | 44.56358 | 26.06440 | 528 ft | 136 kts | 81° |
| 2026-04-30 20:33 | 44.56465 | 26.07744 | 371 ft | 136 kts | 83° |
| 2026-04-30 20:34 | 44.56668 | 26.10499 | 879 ft | 155 kts | 85° |
| 2026-04-30 20:34 | 44.56876 | 26.13547 | 2521 ft | 169 kts | 81° |
| 2026-04-30 20:35 | 44.57019 | 26.15341 | 2837 ft | 203 kts | 81° |
| 2026-04-30 20:35 | 44.57178 | 26.17363 | 2951 ft | 210 kts | 81° |
| 2026-04-30 20:35 | 44.57108 | 26.21436 | 2994 ft | 218 kts | 111° |
| 2026-04-30 20:36 | 44.56127 | 26.23089 | 3000 ft | 228 kts | 141° |
| 2026-04-30 20:36 | 44.54634 | 26.23898 | 3005 ft | 235 kts | 166° |
| 2026-04-30 20:36 | 44.51344 | 26.24424 | 3008 ft | 242 kts | 172° |
| 2026-04-30 20:37 | 44.49670 | 26.24083 | 2992 ft | 248 kts | 201° |
| 2026-04-30 20:37 | 44.48270 | 26.22683 | 2965 ft | 250 kts | 230° |
| 2026-04-30 20:37 | 44.47466 | 26.20544 | 2973 ft | 250 kts | 256° |
| 2026-04-30 20:37 | 44.47092 | 26.18208 | 2979 ft | 248 kts | 265° |
| 2026-04-30 20:38 | 44.46950 | 26.15805 | 2978 ft | 247 kts | 272° |
| 2026-04-30 20:38 | 44.46954 | 26.13424 | 2973 ft | 247 kts | 274° |
| 2026-04-30 20:38 | 44.46967 | 26.10999 | 2973 ft | 247 kts | 273° |
| 2026-04-30 20:39 | 44.46983 | 26.06191 | 2971 ft | 247 kts | 274° |
| 2026-04-30 20:39 | 44.46991 | 26.03789 | 2970 ft | 247 kts | 274° |
| 2026-04-30 20:39 | 44.46999 | 26.01377 | 2971 ft | 247 kts | 273° |
| 2026-04-30 20:40 | 44.47015 | 25.96580 | 2969 ft | 246 kts | 273° |
| 2026-04-30 20:40 | 44.47022 | 25.94184 | 2972 ft | 245 kts | 273° |
| 2026-04-30 20:40 | 44.47030 | 25.91794 | 2974 ft | 245 kts | 273° |
| 2026-04-30 20:41 | 44.47044 | 25.87031 | 2969 ft | 246 kts | 273° |
| 2026-04-30 20:41 | 44.47050 | 25.84636 | 2975 ft | 246 kts | 273° |
| 2026-04-30 20:41 | 44.47062 | 25.82246 | 2976 ft | 245 kts | 276° |
| 2026-04-30 20:41 | 44.47527 | 25.80073 | 2685 ft | 229 kts | 311° |
| 2026-04-30 20:42 | 44.48757 | 25.78809 | 2485 ft | 218 kts | 350° |
| 2026-04-30 20:42 | 44.50178 | 25.78909 | 2455 ft | 195 kts | 26° |
| 2026-04-30 20:42 | 44.52188 | 25.81205 | 2534 ft | 181 kts | 44° |
| 2026-04-30 20:43 | 44.52962 | 25.82453 | 2483 ft | 161 kts | 66° |
| 2026-04-30 20:43 | 44.53153 | 25.83914 | 2458 ft | 149 kts | 89° |
| 2026-04-30 20:43 | 44.52969 | 25.85353 | 2462 ft | 151 kts | 100° |
| 2026-04-30 20:44 | 44.53660 | 25.87858 | 2480 ft | 146 kts | 51° |
| 2026-04-30 20:44 | 44.54296 | 25.88971 | 2481 ft | 146 kts | 56° |
| 2026-04-30 20:44 | 44.55073 | 25.91586 | 2434 ft | 147 kts | 75° |
| 2026-04-30 20:45 | 44.55409 | 25.94407 | 2153 ft | 147 kts | 81° |
| 2026-04-30 20:45 | 44.55545 | 25.95863 | 1966 ft | 151 kts | 80° |
| 2026-04-30 20:45 | 44.55660 | 25.97214 | 1743 ft | 133 kts | 82° |
| 2026-04-30 20:46 | 44.55960 | 26.01116 | 1202 ft | 135 kts | 82° |
| 2026-04-30 20:46 | 44.56061 | 26.02439 | 1030 ft | 137 kts | 83° |
| 2026-04-30 20:47 | 44.56262 | 26.05114 | 681 ft | 139 kts | 84° |
| 2026-04-30 20:47 | 44.56367 | 26.06467 | 524 ft | 139 kts | 83° |
| 2026-04-30 20:48 | 44.56576 | 26.09098 | 323 ft | 121 kts | 84° |
| 2026-04-30 20:48 | 44.56646 | 26.10040 | 324 ft | 73 kts | 83° |
| 2026-04-30 20:48 | 44.56680 | 26.10532 | 326 ft | 45 kts | 85° |
| 2026-04-30 20:48 | 44.56688 | 26.10644 | 326 ft | 2 kts | 79° |
| 2026-04-30 20:49 | 44.56716 | 26.10741 | 323 ft | 13 kts | 44° |
| 2026-04-30 20:49 | 44.56780 | 26.10760 | 325 ft | 6 kts | 352° |
| 2026-04-30 20:49 | 44.56829 | 26.10754 | 326 ft | 8 kts | 356° |
| 2026-04-30 20:50 | 44.56966 | 26.10728 | 326 ft | 11 kts | 342° |
| 2026-04-30 20:50 | 44.57030 | 26.10650 | 325 ft | 13 kts | 296° |
| 2026-04-30 20:50 | 44.57055 | 26.10577 | 325 ft | 8 kts | 293° |
| 2026-04-30 20:50 | 44.57066 | 26.10497 | 325 ft | 6 kts | 274° |
| 2026-04-30 20:51 | 44.57062 | 26.10428 | 326 ft | 8 kts | 264° |
| 2026-04-30 20:51 | 44.57046 | 26.10229 | 326 ft | 12 kts | 264° |
| 2026-04-30 20:51 | 44.57036 | 26.10098 | 326 ft | 14 kts | 264° |
| 2026-04-30 20:52 | 44.57029 | 26.09979 | 326 ft | 8 kts | 265° |
| 2026-04-30 20:52 | 44.57022 | 26.09889 | 326 ft | 10 kts | 264° |
| 2026-04-30 20:52 | 44.57004 | 26.09645 | 326 ft | 15 kts | 264° |
| 2026-04-30 20:53 | 44.56992 | 26.09496 | 326 ft | 16 kts | 263° |
| 2026-04-30 20:53 | 44.56979 | 26.09334 | 326 ft | 14 kts | 264° |
| 2026-04-30 20:53 | 44.56971 | 26.09226 | 326 ft | 12 kts | 264° |
| 2026-04-30 20:54 | 44.56959 | 26.09066 | 326 ft | 2 kts | 265° |
| 2026-04-30 20:54 | 44.56951 | 26.09045 | 325 ft | 4 kts | 217° |
| 2026-04-30 20:54 | 44.56926 | 26.09038 | 326 ft | 3 kts | 180° |
| 2026-04-30 20:55 | 44.56902 | 26.09041 | 326 ft | 1 kts | 174° |
| 2026-04-30 20:55 | 44.56897 | 26.09042 | 326 ft | 0 kts | 174° |